sensor_id;sensor_type;location;lat;lon;timestamp;P1;durP1;ratioP1;P2;durP2;ratioP2
38994;SDS011;24769;18.712;99.000;2023-02-13T00:00:19;115.50;;;112.50;;
38994;SDS011;24769;18.712;99.000;2023-02-13T00:02:47;104.00;;;104.00;;
38994;SDS011;24769;18.712;99.000;2023-02-13T00:05:13;107.50;;;106.75;;
38994;SDS011;24769;18.712;99.000;2023-02-13T00:07:40;115.50;;;115.00;;
38994;SDS011;24769;18.712;99.000;2023-02-13T00:10:07;104.75;;;104.75;;
38994;SDS011;24769;18.712;99.000;2023-02-13T00:12:34;118.50;;;116.50;;
38994;SDS011;24769;18.712;99.000;2023-02-13T00:15:01;113.50;;;112.00;;
38994;SDS011;24769;18.712;99.000;2023-02-13T00:17:28;119.25;;;116.25;;
38994;SDS011;24769;18.712;99.000;2023-02-13T00:19:54;119.50;;;117.25;;
38994;SDS011;24769;18.712;99.000;2023-02-13T00:22:21;113.50;;;113.25;;
38994;SDS011;24769;18.712;99.000;2023-02-13T00:24:48;125.33;;;121.00;;
38994;SDS011;24769;18.712;99.000;2023-02-13T00:27:15;122.00;;;119.67;;
38994;SDS011;24769;18.712;99.000;2023-02-13T00:29:42;132.00;;;129.00;;
38994;SDS011;24769;18.712;99.000;2023-02-13T00:32:08;129.33;;;127.33;;
38994;SDS011;24769;18.712;99.000;2023-02-13T00:34:35;118.33;;;117.67;;
38994;SDS011;24769;18.712;99.000;2023-02-13T00:37:02;124.00;;;118.67;;
38994;SDS011;24769;18.712;99.000;2023-02-13T00:39:28;120.00;;;118.33;;
38994;SDS011;24769;18.712;99.000;2023-02-13T00:41:55;133.33;;;128.67;;
38994;SDS011;24769;18.712;99.000;2023-02-13T00:44:21;121.00;;;118.67;;
38994;SDS011;24769;18.712;99.000;2023-02-13T00:46:48;125.67;;;125.67;;
38994;SDS011;24769;18.712;99.000;2023-02-13T00:49:14;128.50;;;126.00;;
38994;SDS011;24769;18.712;99.000;2023-02-13T00:51:41;133.75;;;129.50;;
38994;SDS011;24769;18.712;99.000;2023-02-13T00:54:07;124.75;;;122.00;;
38994;SDS011;24769;18.712;99.000;2023-02-13T00:56:34;123.75;;;123.75;;
38994;SDS011;24769;18.712;99.000;2023-02-13T00:59:00;117.25;;;117.00;;
38994;SDS011;24769;18.712;99.000;2023-02-13T01:01:27;122.00;;;119.75;;
38994;SDS011;24769;18.712;99.000;2023-02-13T01:03:54;122.75;;;120.50;;
38994;SDS011;24769;18.712;99.000;2023-02-13T01:06:20;120.50;;;119.00;;
38994;SDS011;24769;18.712;99.000;2023-02-13T01:08:47;130.25;;;127.75;;
38994;SDS011;24769;18.712;99.000;2023-02-13T01:11:13;125.50;;;121.50;;
38994;SDS011;24769;18.712;99.000;2023-02-13T01:13:40;125.50;;;120.50;;
38994;SDS011;24769;18.712;99.000;2023-02-13T01:16:06;131.25;;;127.00;;
38994;SDS011;24769;18.712;99.000;2023-02-13T01:18:33;127.25;;;125.00;;
38994;SDS011;24769;18.712;99.000;2023-02-13T01:21:01;115.50;;;113.00;;
38994;SDS011;24769;18.712;99.000;2023-02-13T01:23:32;112.75;;;111.50;;
38994;SDS011;24769;18.712;99.000;2023-02-13T01:26:04;114.00;;;113.75;;
38994;SDS011;24769;18.712;99.000;2023-02-13T01:28:32;105.40;;;104.40;;
38994;SDS011;24769;18.712;99.000;2023-02-13T01:30:59;113.00;;;111.00;;
38994;SDS011;24769;18.712;99.000;2023-02-13T01:33:26;112.80;;;111.80;;
38994;SDS011;24769;18.712;99.000;2023-02-13T01:35:54;110.80;;;110.60;;
38994;SDS011;24769;18.712;99.000;2023-02-13T01:38:20;115.25;;;113.00;;
38994;SDS011;24769;18.712;99.000;2023-02-13T01:40:48;103.20;;;103.00;;
38994;SDS011;24769;18.712;99.000;2023-02-13T01:43:16;112.20;;;112.20;;
38994;SDS011;24769;18.712;99.000;2023-02-13T01:45:44;121.20;;;119.40;;
38994;SDS011;24769;18.712;99.000;2023-02-13T01:48:18;120.60;;;118.60;;
38994;SDS011;24769;18.712;99.000;2023-02-13T01:50:52;123.20;;;119.80;;
38994;SDS011;24769;18.712;99.000;2023-02-13T01:56:07;118.40;;;114.40;;
38994;SDS011;24769;18.712;99.000;2023-02-13T01:58:38;111.80;;;111.00;;
38994;SDS011;24769;18.712;99.000;2023-02-13T02:01:09;118.20;;;116.40;;
38994;SDS011;24769;18.712;99.000;2023-02-13T02:06:10;126.80;;;125.00;;
38994;SDS011;24769;18.712;99.000;2023-02-13T02:08:43;103.80;;;103.20;;
38994;SDS011;24769;18.712;99.000;2023-02-13T02:11:16;112.20;;;111.40;;
38994;SDS011;24769;18.712;99.000;2023-02-13T02:13:56;115.00;;;113.40;;
38994;SDS011;24769;18.712;99.000;2023-02-13T02:16:23;113.80;;;110.60;;
38994;SDS011;24769;18.712;99.000;2023-02-13T02:18:51;116.40;;;115.60;;
38994;SDS011;24769;18.712;99.000;2023-02-13T02:21:42;114.20;;;110.80;;
38994;SDS011;24769;18.712;99.000;2023-02-13T02:26:53;115.80;;;113.20;;
38994;SDS011;24769;18.712;99.000;2023-02-13T02:29:45;118.00;;;116.00;;
38994;SDS011;24769;18.712;99.000;2023-02-13T02:32:41;121.80;;;120.60;;
38994;SDS011;24769;18.712;99.000;2023-02-13T02:44:03;123.80;;;123.00;;
38994;SDS011;24769;18.712;99.000;2023-02-13T02:46:36;116.60;;;114.40;;
38994;SDS011;24769;18.712;99.000;2023-02-13T02:49:29;113.60;;;112.20;;
38994;SDS011;24769;18.712;99.000;2023-02-13T02:52:22;118.80;;;117.80;;
38994;SDS011;24769;18.712;99.000;2023-02-13T02:55:00;122.20;;;120.80;;
38994;SDS011;24769;18.712;99.000;2023-02-13T02:57:49;116.40;;;114.60;;
38994;SDS011;24769;18.712;99.000;2023-02-13T03:00:43;110.20;;;108.80;;
38994;SDS011;24769;18.712;99.000;2023-02-13T03:03:44;116.40;;;116.40;;
38994;SDS011;24769;18.712;99.000;2023-02-13T03:09:11;120.80;;;119.80;;
38994;SDS011;24769;18.712;99.000;2023-02-13T03:12:02;124.00;;;122.80;;
38994;SDS011;24769;18.712;99.000;2023-02-13T03:14:47;119.80;;;119.60;;
38994;SDS011;24769;18.712;99.000;2023-02-13T03:17:15;118.20;;;117.40;;
38994;SDS011;24769;18.712;99.000;2023-02-13T03:25:44;117.80;;;117.00;;
38994;SDS011;24769;18.712;99.000;2023-02-13T03:42:06;113.80;;;111.60;;
38994;SDS011;24769;18.712;99.000;2023-02-13T03:44:53;118.80;;;115.60;;
38994;SDS011;24769;18.712;99.000;2023-02-13T03:47:43;117.20;;;117.00;;
38994;SDS011;24769;18.712;99.000;2023-02-13T03:50:12;111.80;;;111.80;;
38994;SDS011;24769;18.712;99.000;2023-02-13T03:55:17;112.80;;;110.40;;
38994;SDS011;24769;18.712;99.000;2023-02-13T03:58:10;111.80;;;110.60;;
38994;SDS011;24769;18.712;99.000;2023-02-13T04:00:59;117.80;;;116.40;;
38994;SDS011;24769;18.712;99.000;2023-02-13T04:03:49;117.00;;;116.80;;
38994;SDS011;24769;18.712;99.000;2023-02-13T04:09:57;109.00;;;109.00;;
38994;SDS011;24769;18.712;99.000;2023-02-13T04:17:52;109.80;;;109.80;;
38994;SDS011;24769;18.712;99.000;2023-02-13T04:20:30;116.00;;;115.00;;
38994;SDS011;24769;18.712;99.000;2023-02-13T04:23:02;93.40;;;91.20;;
38994;SDS011;24769;18.712;99.000;2023-02-13T04:25:33;110.40;;;109.40;;
38994;SDS011;24769;18.712;99.000;2023-02-13T04:28:02;108.00;;;106.40;;
38994;SDS011;24769;18.712;99.000;2023-02-13T04:30:29;105.20;;;103.20;;
38994;SDS011;24769;18.712;99.000;2023-02-13T04:32:55;113.80;;;112.20;;
38994;SDS011;24769;18.712;99.000;2023-02-13T04:35:22;104.60;;;104.60;;
38994;SDS011;24769;18.712;99.000;2023-02-13T04:37:48;98.40;;;97.80;;
38994;SDS011;24769;18.712;99.000;2023-02-13T04:40:15;106.80;;;105.80;;
38994;SDS011;24769;18.712;99.000;2023-02-13T04:42:42;104.20;;;103.80;;
38994;SDS011;24769;18.712;99.000;2023-02-13T04:45:08;106.20;;;105.60;;
38994;SDS011;24769;18.712;99.000;2023-02-13T04:47:35;108.60;;;106.00;;
38994;SDS011;24769;18.712;99.000;2023-02-13T04:50:01;98.60;;;98.60;;
38994;SDS011;24769;18.712;99.000;2023-02-13T04:52:28;88.60;;;87.80;;
38994;SDS011;24769;18.712;99.000;2023-02-13T04:54:55;106.80;;;106.80;;
38994;SDS011;24769;18.712;99.000;2023-02-13T04:57:21;99.80;;;99.80;;
38994;SDS011;24769;18.712;99.000;2023-02-13T04:59:48;97.60;;;95.40;;
38994;SDS011;24769;18.712;99.000;2023-02-13T05:02:14;99.60;;;96.60;;
38994;SDS011;24769;18.712;99.000;2023-02-13T05:04:41;89.20;;;88.80;;
38994;SDS011;24769;18.712;99.000;2023-02-13T05:07:07;93.80;;;92.60;;
38994;SDS011;24769;18.712;99.000;2023-02-13T05:09:34;86.25;;;83.75;;
38994;SDS011;24769;18.712;99.000;2023-02-13T05:12:00;85.00;;;83.25;;
38994;SDS011;24769;18.712;99.000;2023-02-13T05:14:27;91.00;;;90.00;;
38994;SDS011;24769;18.712;99.000;2023-02-13T05:16:53;85.75;;;85.25;;
38994;SDS011;24769;18.712;99.000;2023-02-13T05:19:20;86.75;;;85.75;;
38994;SDS011;24769;18.712;99.000;2023-02-13T05:21:46;91.00;;;90.50;;
38994;SDS011;24769;18.712;99.000;2023-02-13T05:24:31;93.00;;;92.50;;
38994;SDS011;24769;18.712;99.000;2023-02-13T05:26:57;79.00;;;77.75;;
38994;SDS011;24769;18.712;99.000;2023-02-13T05:29:24;92.00;;;90.75;;
38994;SDS011;24769;18.712;99.000;2023-02-13T05:31:51;90.00;;;88.00;;
38994;SDS011;24769;18.712;99.000;2023-02-13T05:34:20;84.00;;;82.75;;
38994;SDS011;24769;18.712;99.000;2023-02-13T05:36:47;74.75;;;70.50;;
38994;SDS011;24769;18.712;99.000;2023-02-13T05:39:14;77.50;;;73.25;;
38994;SDS011;24769;18.712;99.000;2023-02-13T05:41:42;75.00;;;67.75;;
38994;SDS011;24769;18.712;99.000;2023-02-13T05:44:10;77.75;;;75.00;;
38994;SDS011;24769;18.712;99.000;2023-02-13T05:46:37;75.25;;;69.50;;
38994;SDS011;24769;18.712;99.000;2023-02-13T05:49:05;75.75;;;72.00;;
38994;SDS011;24769;18.712;99.000;2023-02-13T05:51:33;74.25;;;68.50;;
38994;SDS011;24769;18.712;99.000;2023-02-13T05:54:00;68.75;;;59.50;;
38994;SDS011;24769;18.712;99.000;2023-02-13T05:56:27;76.00;;;71.00;;
38994;SDS011;24769;18.712;99.000;2023-02-13T05:58:54;75.75;;;71.25;;
38994;SDS011;24769;18.712;99.000;2023-02-13T06:01:21;73.50;;;67.25;;
38994;SDS011;24769;18.712;99.000;2023-02-13T06:03:48;76.00;;;70.75;;
38994;SDS011;24769;18.712;99.000;2023-02-13T06:06:15;77.25;;;70.50;;
38994;SDS011;24769;18.712;99.000;2023-02-13T06:08:42;74.75;;;69.00;;
38994;SDS011;24769;18.712;99.000;2023-02-13T06:11:09;75.50;;;68.75;;
38994;SDS011;24769;18.712;99.000;2023-02-13T06:13:35;66.50;;;54.50;;
38994;SDS011;24769;18.712;99.000;2023-02-13T06:16:08;71.00;;;62.25;;
38994;SDS011;24769;18.712;99.000;2023-02-13T06:18:35;74.50;;;69.25;;
38994;SDS011;24769;18.712;99.000;2023-02-13T06:21:02;70.75;;;62.75;;
38994;SDS011;24769;18.712;99.000;2023-02-13T06:23:29;67.00;;;57.50;;
38994;SDS011;24769;18.712;99.000;2023-02-13T06:25:56;71.50;;;63.75;;
38994;SDS011;24769;18.712;99.000;2023-02-13T06:28:26;69.50;;;60.50;;
38994;SDS011;24769;18.712;99.000;2023-02-13T06:30:52;72.25;;;65.00;;
38994;SDS011;24769;18.712;99.000;2023-02-13T06:33:19;68.50;;;59.00;;
38994;SDS011;24769;18.712;99.000;2023-02-13T06:35:46;69.25;;;58.75;;
38994;SDS011;24769;18.712;99.000;2023-02-13T06:38:12;57.00;;;47.40;;
38994;SDS011;24769;18.712;99.000;2023-02-13T06:40:39;69.20;;;58.40;;
38994;SDS011;24769;18.712;99.000;2023-02-13T06:43:05;64.00;;;53.00;;
38994;SDS011;24769;18.712;99.000;2023-02-13T06:45:32;60.80;;;50.00;;
38994;SDS011;24769;18.712;99.000;2023-02-13T06:47:58;62.00;;;51.00;;
38994;SDS011;24769;18.712;99.000;2023-02-13T06:50:25;60.80;;;50.00;;
38994;SDS011;24769;18.712;99.000;2023-02-13T06:52:51;58.20;;;47.80;;
38994;SDS011;24769;18.712;99.000;2023-02-13T06:55:18;58.60;;;47.80;;
38994;SDS011;24769;18.712;99.000;2023-02-13T06:57:45;54.40;;;45.40;;
38994;SDS011;24769;18.712;99.000;2023-02-13T07:00:12;59.00;;;49.00;;
38994;SDS011;24769;18.712;99.000;2023-02-13T07:02:41;57.80;;;48.40;;
38994;SDS011;24769;18.712;99.000;2023-02-13T07:05:08;59.00;;;49.00;;
38994;SDS011;24769;18.712;99.000;2023-02-13T07:07:36;56.40;;;47.20;;
38994;SDS011;24769;18.712;99.000;2023-02-13T07:10:05;57.80;;;47.80;;
38994;SDS011;24769;18.712;99.000;2023-02-13T07:12:35;55.60;;;46.60;;
38994;SDS011;24769;18.712;99.000;2023-02-13T07:15:03;54.40;;;45.40;;
38994;SDS011;24769;18.712;99.000;2023-02-13T07:17:30;55.80;;;46.20;;
38994;SDS011;24769;18.712;99.000;2023-02-13T07:19:58;55.80;;;46.60;;
38994;SDS011;24769;18.712;99.000;2023-02-13T07:22:24;53.00;;;44.60;;
38994;SDS011;24769;18.712;99.000;2023-02-13T07:24:51;54.00;;;45.00;;
38994;SDS011;24769;18.712;99.000;2023-02-13T07:27:17;52.40;;;44.20;;
38994;SDS011;24769;18.712;99.000;2023-02-13T07:29:44;54.40;;;45.40;;
38994;SDS011;24769;18.712;99.000;2023-02-13T07:32:11;54.80;;;46.00;;
38994;SDS011;24769;18.712;99.000;2023-02-13T07:34:37;55.80;;;46.80;;
38994;SDS011;24769;18.712;99.000;2023-02-13T07:37:04;55.40;;;46.40;;
38994;SDS011;24769;18.712;99.000;2023-02-13T07:39:30;54.80;;;45.40;;
38994;SDS011;24769;18.712;99.000;2023-02-13T07:41:57;48.80;;;41.00;;
38994;SDS011;24769;18.712;99.000;2023-02-13T07:44:23;56.00;;;46.00;;
38994;SDS011;24769;18.712;99.000;2023-02-13T07:46:50;53.80;;;45.20;;
38994;SDS011;24769;18.712;99.000;2023-02-13T07:49:16;46.80;;;40.20;;
38994;SDS011;24769;18.712;99.000;2023-02-13T07:51:43;54.40;;;45.60;;
38994;SDS011;24769;18.712;99.000;2023-02-13T07:54:09;60.20;;;49.40;;
38994;SDS011;24769;18.712;99.000;2023-02-13T07:56:36;52.80;;;44.80;;
38994;SDS011;24769;18.712;99.000;2023-02-13T07:59:03;54.80;;;45.80;;
38994;SDS011;24769;18.712;99.000;2023-02-13T08:01:29;51.60;;;43.00;;
38994;SDS011;24769;18.712;99.000;2023-02-13T08:03:56;56.00;;;46.60;;
38994;SDS011;24769;18.712;99.000;2023-02-13T08:06:22;53.80;;;45.00;;
38994;SDS011;24769;18.712;99.000;2023-02-13T08:08:49;56.60;;;46.40;;
38994;SDS011;24769;18.712;99.000;2023-02-13T08:11:35;55.40;;;46.40;;
38994;SDS011;24769;18.712;99.000;2023-02-13T08:14:21;55.20;;;45.40;;
38994;SDS011;24769;18.712;99.000;2023-02-13T08:16:49;55.60;;;46.00;;
38994;SDS011;24769;18.712;99.000;2023-02-13T08:19:16;54.80;;;45.20;;
38994;SDS011;24769;18.712;99.000;2023-02-13T08:21:43;54.60;;;45.60;;
38994;SDS011;24769;18.712;99.000;2023-02-13T08:24:10;58.60;;;48.60;;
38994;SDS011;24769;18.712;99.000;2023-02-13T08:26:37;55.00;;;46.00;;
38994;SDS011;24769;18.712;99.000;2023-02-13T08:29:04;55.40;;;46.00;;
38994;SDS011;24769;18.712;99.000;2023-02-13T08:31:31;56.80;;;47.00;;
38994;SDS011;24769;18.712;99.000;2023-02-13T08:33:58;57.20;;;47.60;;
38994;SDS011;24769;18.712;99.000;2023-02-13T08:36:24;58.00;;;48.20;;
38994;SDS011;24769;18.712;99.000;2023-02-13T08:38:51;59.00;;;49.00;;
38994;SDS011;24769;18.712;99.000;2023-02-13T08:41:18;56.80;;;46.60;;
38994;SDS011;24769;18.712;99.000;2023-02-13T08:43:47;57.40;;;47.60;;
38994;SDS011;24769;18.712;99.000;2023-02-13T08:46:15;61.20;;;49.80;;
38994;SDS011;24769;18.712;99.000;2023-02-13T08:48:42;55.40;;;46.40;;
38994;SDS011;24769;18.712;99.000;2023-02-13T08:51:09;57.60;;;48.20;;
38994;SDS011;24769;18.712;99.000;2023-02-13T08:53:37;56.00;;;46.80;;
38994;SDS011;24769;18.712;99.000;2023-02-13T08:56:05;54.00;;;45.00;;
38994;SDS011;24769;18.712;99.000;2023-02-13T08:58:31;53.00;;;44.40;;
38994;SDS011;24769;18.712;99.000;2023-02-13T09:00:58;55.00;;;46.00;;
38994;SDS011;24769;18.712;99.000;2023-02-13T09:03:25;53.00;;;44.80;;
38994;SDS011;24769;18.712;99.000;2023-02-13T09:05:51;50.40;;;43.20;;
38994;SDS011;24769;18.712;99.000;2023-02-13T09:08:18;55.80;;;46.80;;
38994;SDS011;24769;18.712;99.000;2023-02-13T09:10:45;56.20;;;47.20;;
38994;SDS011;24769;18.712;99.000;2023-02-13T09:13:11;52.40;;;44.40;;
38994;SDS011;24769;18.712;99.000;2023-02-13T09:15:38;54.20;;;45.20;;
38994;SDS011;24769;18.712;99.000;2023-02-13T09:18:05;18.40;;;17.60;;
38994;SDS011;24769;18.712;99.000;2023-02-13T09:20:32;54.80;;;46.40;;
38994;SDS011;24769;18.712;99.000;2023-02-13T09:22:59;52.80;;;44.60;;
38994;SDS011;24769;18.712;99.000;2023-02-13T09:25:25;53.20;;;45.20;;
38994;SDS011;24769;18.712;99.000;2023-02-13T09:27:52;52.80;;;44.20;;
38994;SDS011;24769;18.712;99.000;2023-02-13T09:30:18;54.80;;;46.40;;
38994;SDS011;24769;18.712;99.000;2023-02-13T09:32:48;54.80;;;45.80;;
38994;SDS011;24769;18.712;99.000;2023-02-13T09:35:16;54.00;;;45.20;;
38994;SDS011;24769;18.712;99.000;2023-02-13T09:37:44;55.80;;;46.60;;
38994;SDS011;24769;18.712;99.000;2023-02-13T09:40:25;53.80;;;45.00;;
38994;SDS011;24769;18.712;99.000;2023-02-13T09:43:02;53.20;;;45.20;;
38994;SDS011;24769;18.712;99.000;2023-02-13T09:45:38;54.00;;;45.00;;
38994;SDS011;24769;18.712;99.000;2023-02-13T09:48:10;54.20;;;44.80;;
38994;SDS011;24769;18.712;99.000;2023-02-13T09:50:49;55.20;;;46.00;;
38994;SDS011;24769;18.712;99.000;2023-02-13T09:53:21;56.20;;;47.20;;
38994;SDS011;24769;18.712;99.000;2023-02-13T09:58:34;55.20;;;46.20;;
38994;SDS011;24769;18.712;99.000;2023-02-13T10:04:22;57.60;;;48.00;;
38994;SDS011;24769;18.712;99.000;2023-02-13T10:07:20;57.00;;;47.80;;
38994;SDS011;24769;18.712;99.000;2023-02-13T10:18:33;56.40;;;47.40;;
38994;SDS011;24769;18.712;99.000;2023-02-13T10:21:07;54.80;;;46.20;;
38994;SDS011;24769;18.712;99.000;2023-02-13T10:23:38;59.20;;;49.20;;
38994;SDS011;24769;18.712;99.000;2023-02-13T10:26:20;56.00;;;47.00;;
38994;SDS011;24769;18.712;99.000;2023-02-13T10:28:58;53.80;;;45.80;;
38994;SDS011;24769;18.712;99.000;2023-02-13T10:31:49;57.50;;;47.75;;
38994;SDS011;24769;18.712;99.000;2023-02-13T10:34:21;53.25;;;44.75;;
38994;SDS011;24769;18.712;99.000;2023-02-13T10:36:52;58.25;;;48.75;;
38994;SDS011;24769;18.712;99.000;2023-02-13T10:39:21;56.75;;;47.50;;
38994;SDS011;24769;18.712;99.000;2023-02-13T10:41:54;51.25;;;43.50;;
38994;SDS011;24769;18.712;99.000;2023-02-13T10:44:45;58.25;;;48.75;;
38994;SDS011;24769;18.712;99.000;2023-02-13T10:50:21;57.00;;;47.75;;
38994;SDS011;24769;18.712;99.000;2023-02-13T10:53:07;61.00;;;50.25;;
38994;SDS011;24769;18.712;99.000;2023-02-13T10:56:11;57.75;;;48.50;;
38994;SDS011;24769;18.712;99.000;2023-02-13T11:02:20;59.00;;;48.75;;
38994;SDS011;24769;18.712;99.000;2023-02-13T11:05:14;57.50;;;48.00;;
38994;SDS011;24769;18.712;99.000;2023-02-13T11:07:43;58.50;;;48.75;;
38994;SDS011;24769;18.712;99.000;2023-02-13T11:12:45;58.50;;;49.00;;
38994;SDS011;24769;18.712;99.000;2023-02-13T11:17:54;58.00;;;49.00;;
38994;SDS011;24769;18.712;99.000;2023-02-13T11:20:32;63.00;;;51.75;;
38994;SDS011;24769;18.712;99.000;2023-02-13T11:23:14;63.25;;;52.25;;
38994;SDS011;24769;18.712;99.000;2023-02-13T11:28:26;62.25;;;51.75;;
38994;SDS011;24769;18.712;99.000;2023-02-13T11:33:59;60.00;;;50.00;;
38994;SDS011;24769;18.712;99.000;2023-02-13T11:36:44;62.00;;;51.00;;
38994;SDS011;24769;18.712;99.000;2023-02-13T11:39:21;64.75;;;53.00;;
38994;SDS011;24769;18.712;99.000;2023-02-13T11:41:51;64.75;;;52.75;;
38994;SDS011;24769;18.712;99.000;2023-02-13T11:44:23;72.00;;;61.00;;
38994;SDS011;24769;18.712;99.000;2023-02-13T11:46:53;69.25;;;57.75;;
38994;SDS011;24769;18.712;99.000;2023-02-13T11:49:25;69.00;;;57.25;;
38994;SDS011;24769;18.712;99.000;2023-02-13T11:51:54;68.75;;;55.50;;
38994;SDS011;24769;18.712;99.000;2023-02-13T11:57:01;71.00;;;59.20;;
38994;SDS011;24769;18.712;99.000;2023-02-13T11:59:32;69.00;;;55.80;;
38994;SDS011;24769;18.712;99.000;2023-02-13T12:02:22;65.60;;;54.20;;
38994;SDS011;24769;18.712;99.000;2023-02-13T12:04:52;69.60;;;55.80;;
38994;SDS011;24769;18.712;99.000;2023-02-13T12:07:37;72.20;;;62.20;;
38994;SDS011;24769;18.712;99.000;2023-02-13T12:10:08;69.80;;;59.40;;
38994;SDS011;24769;18.712;99.000;2023-02-13T12:12:54;73.00;;;63.00;;
38994;SDS011;24769;18.712;99.000;2023-02-13T12:15:24;82.20;;;77.60;;
38994;SDS011;24769;18.712;99.000;2023-02-13T12:18:35;92.20;;;90.60;;
38994;SDS011;24769;18.712;99.000;2023-02-13T12:20:56;93.20;;;91.20;;
38994;SDS011;24769;18.712;99.000;2023-02-13T12:26:36;97.80;;;93.80;;
38994;SDS011;24769;18.712;99.000;2023-02-13T12:45:52;82.00;;;78.00;;
38994;SDS011;24769;18.712;99.000;2023-02-13T12:51:11;86.20;;;83.00;;
38994;SDS011;24769;18.712;99.000;2023-02-13T12:56:56;87.80;;;86.80;;
38994;SDS011;24769;18.712;99.000;2023-02-13T13:10:24;83.20;;;78.40;;
38994;SDS011;24769;18.712;99.000;2023-02-13T13:18:35;79.20;;;71.80;;
38994;SDS011;24769;18.712;99.000;2023-02-13T13:21:35;81.60;;;72.80;;
38994;SDS011;24769;18.712;99.000;2023-02-13T13:27:32;87.80;;;86.40;;
38994;SDS011;24769;18.712;99.000;2023-02-13T13:30:22;83.20;;;80.80;;
38994;SDS011;24769;18.712;99.000;2023-02-13T13:35:41;86.40;;;86.20;;
38994;SDS011;24769;18.712;99.000;2023-02-13T13:41:16;86.20;;;85.20;;
38994;SDS011;24769;18.712;99.000;2023-02-13T13:46:42;90.60;;;87.20;;
38994;SDS011;24769;18.712;99.000;2023-02-13T13:49:33;92.40;;;92.40;;
38994;SDS011;24769;18.712;99.000;2023-02-13T13:54:52;82.80;;;80.80;;
38994;SDS011;24769;18.712;99.000;2023-02-13T13:57:21;83.40;;;81.00;;
38994;SDS011;24769;18.712;99.000;2023-02-13T13:59:59;86.40;;;83.40;;
38994;SDS011;24769;18.712;99.000;2023-02-13T14:05:55;81.40;;;77.20;;
38994;SDS011;24769;18.712;99.000;2023-02-13T14:11:24;83.60;;;79.60;;
38994;SDS011;24769;18.712;99.000;2023-02-13T14:13:55;81.80;;;77.40;;
38994;SDS011;24769;18.712;99.000;2023-02-13T14:19:21;80.40;;;74.80;;
38994;SDS011;24769;18.712;99.000;2023-02-13T14:21:49;78.60;;;72.40;;
38994;SDS011;24769;18.712;99.000;2023-02-13T14:24:16;81.80;;;76.80;;
38994;SDS011;24769;18.712;99.000;2023-02-13T14:26:56;80.60;;;73.40;;
38994;SDS011;24769;18.712;99.000;2023-02-13T14:29:30;80.00;;;74.20;;
38994;SDS011;24769;18.712;99.000;2023-02-13T14:32:02;83.40;;;80.60;;
38994;SDS011;24769;18.712;99.000;2023-02-13T14:34:32;79.00;;;71.40;;
38994;SDS011;24769;18.712;99.000;2023-02-13T14:37:06;79.20;;;71.80;;
38994;SDS011;24769;18.712;99.000;2023-02-13T14:40:08;83.00;;;77.80;;
38994;SDS011;24769;18.712;99.000;2023-02-13T14:42:35;83.80;;;78.60;;
38994;SDS011;24769;18.712;99.000;2023-02-13T14:45:03;78.40;;;69.20;;
38994;SDS011;24769;18.712;99.000;2023-02-13T14:47:41;82.00;;;73.80;;
38994;SDS011;24769;18.712;99.000;2023-02-13T14:50:24;82.40;;;74.40;;
38994;SDS011;24769;18.712;99.000;2023-02-13T14:52:59;84.20;;;76.40;;
38994;SDS011;24769;18.712;99.000;2023-02-13T14:55:37;84.20;;;75.40;;
38994;SDS011;24769;18.712;99.000;2023-02-13T14:58:19;83.20;;;75.20;;
38994;SDS011;24769;18.712;99.000;2023-02-13T15:03:45;85.60;;;77.40;;
38994;SDS011;24769;18.712;99.000;2023-02-13T15:06:19;82.00;;;73.20;;
38994;SDS011;24769;18.712;99.000;2023-02-13T15:09:04;85.00;;;79.60;;
38994;SDS011;24769;18.712;99.000;2023-02-13T15:11:42;84.00;;;76.60;;
38994;SDS011;24769;18.712;99.000;2023-02-13T15:17:11;85.40;;;79.40;;
38994;SDS011;24769;18.712;99.000;2023-02-13T15:19:46;84.80;;;78.40;;
38994;SDS011;24769;18.712;99.000;2023-02-13T15:22:24;77.60;;;65.40;;
38994;SDS011;24769;18.712;99.000;2023-02-13T15:24:58;81.80;;;74.40;;
38994;SDS011;24769;18.712;99.000;2023-02-13T15:27:26;81.60;;;73.20;;
38994;SDS011;24769;18.712;99.000;2023-02-13T15:30:00;82.60;;;74.60;;
38994;SDS011;24769;18.712;99.000;2023-02-13T15:32:40;83.80;;;78.40;;
38994;SDS011;24769;18.712;99.000;2023-02-13T15:40:57;88.20;;;83.20;;
38994;SDS011;24769;18.712;99.000;2023-02-13T15:43:39;86.80;;;82.60;;
38994;SDS011;24769;18.712;99.000;2023-02-13T15:46:27;84.20;;;78.40;;
38994;SDS011;24769;18.712;99.000;2023-02-13T15:48:59;83.40;;;81.80;;
38994;SDS011;24769;18.712;99.000;2023-02-13T15:51:31;76.00;;;71.60;;
38994;SDS011;24769;18.712;99.000;2023-02-13T15:54:05;85.80;;;84.00;;
38994;SDS011;24769;18.712;99.000;2023-02-13T15:56:45;81.00;;;80.20;;
38994;SDS011;24769;18.712;99.000;2023-02-13T15:59:13;80.00;;;79.80;;
38994;SDS011;24769;18.712;99.000;2023-02-13T16:01:41;89.40;;;87.60;;
38994;SDS011;24769;18.712;99.000;2023-02-13T16:04:09;77.80;;;74.00;;
38994;SDS011;24769;18.712;99.000;2023-02-13T16:06:42;82.80;;;81.40;;
38994;SDS011;24769;18.712;99.000;2023-02-13T16:09:28;86.60;;;84.00;;
38994;SDS011;24769;18.712;99.000;2023-02-13T16:17:27;87.20;;;87.20;;
38994;SDS011;24769;18.712;99.000;2023-02-13T16:20:05;90.80;;;90.00;;
38994;SDS011;24769;18.712;99.000;2023-02-13T16:22:53;82.80;;;82.40;;
38994;SDS011;24769;18.712;99.000;2023-02-13T16:25:30;90.60;;;87.80;;
38994;SDS011;24769;18.712;99.000;2023-02-13T16:28:01;87.80;;;86.60;;
38994;SDS011;24769;18.712;99.000;2023-02-13T16:30:42;91.20;;;90.20;;
38994;SDS011;24769;18.712;99.000;2023-02-13T16:35:51;86.20;;;85.20;;
38994;SDS011;24769;18.712;99.000;2023-02-13T16:43:47;93.40;;;91.20;;
38994;SDS011;24769;18.712;99.000;2023-02-13T16:46:19;98.00;;;94.60;;
38994;SDS011;24769;18.712;99.000;2023-02-13T17:02:29;93.60;;;93.00;;
38994;SDS011;24769;18.712;99.000;2023-02-13T17:07:35;96.60;;;95.20;;
38994;SDS011;24769;18.712;99.000;2023-02-13T17:10:16;91.40;;;91.40;;
38994;SDS011;24769;18.712;99.000;2023-02-13T17:12:44;97.80;;;94.20;;
38994;SDS011;24769;18.712;99.000;2023-02-13T17:15:12;91.00;;;88.60;;
38994;SDS011;24769;18.712;99.000;2023-02-13T17:17:40;97.80;;;96.20;;
38994;SDS011;24769;18.712;99.000;2023-02-13T17:20:07;92.60;;;92.20;;
38994;SDS011;24769;18.712;99.000;2023-02-13T17:22:39;94.60;;;94.40;;
38994;SDS011;24769;18.712;99.000;2023-02-13T17:25:14;95.20;;;94.60;;
38994;SDS011;24769;18.712;99.000;2023-02-13T17:27:46;93.80;;;93.60;;
38994;SDS011;24769;18.712;99.000;2023-02-13T17:30:16;101.00;;;99.80;;
38994;SDS011;24769;18.712;99.000;2023-02-13T17:32:45;98.80;;;98.20;;
38994;SDS011;24769;18.712;99.000;2023-02-13T17:35:13;95.00;;;94.00;;
38994;SDS011;24769;18.712;99.000;2023-02-13T17:37:41;95.20;;;94.20;;
38994;SDS011;24769;18.712;99.000;2023-02-13T17:40:14;95.60;;;95.40;;